createdAt,value
2022-12-06T00:00:01.916Z,75.24
2022-12-06T00:02:54.881Z,75.57
2022-12-06T00:05:25.449Z,75.18
2022-12-06T00:07:57.784Z,75.30
2022-12-06T00:10:30.082Z,75.36
2022-12-06T00:13:02.313Z,75.43
2022-12-06T00:15:38.280Z,75.53
2022-12-06T00:18:10.455Z,75.22
2022-12-06T00:20:42.630Z,75.80
2022-12-06T00:23:14.976Z,75.84
2022-12-06T00:25:47.164Z,75.98
2022-12-06T00:28:19.459Z,76.02
2022-12-06T00:30:51.672Z,75.57
2022-12-06T00:33:23.932Z,75.52
2022-12-06T00:36:00.117Z,75.77
2022-12-06T00:38:33.053Z,75.52
2022-12-06T00:41:07.008Z,75.71
2022-12-06T00:43:39.556Z,76.01
2022-12-06T00:46:10.809Z,75.82
2022-12-06T00:48:43.116Z,75.57
2022-12-06T00:51:16.417Z,76.04
2022-12-06T00:53:48.862Z,75.67
2022-12-06T00:56:21.679Z,75.49
2022-12-06T00:58:53.948Z,76.00
2022-12-06T01:01:28.019Z,75.91
2022-12-06T01:04:02.476Z,75.81
2022-12-06T01:06:36.761Z,75.80
2022-12-06T01:09:15.067Z,75.78
2022-12-06T01:11:47.234Z,75.87
2022-12-06T01:14:19.411Z,75.77
2022-12-06T01:16:51.724Z,75.74
2022-12-06T01:19:23.978Z,75.67
2022-12-06T01:21:56.247Z,75.85
2022-12-06T01:24:28.443Z,75.53
2022-12-06T01:27:00.752Z,75.36
2022-12-06T01:29:32.961Z,75.44
2022-12-06T01:32:05.292Z,75.28
2022-12-06T01:34:37.754Z,75.49
2022-12-06T01:37:10.024Z,75.85
2022-12-06T01:39:42.185Z,75.67
2022-12-06T01:42:14.793Z,76.06
2022-12-06T01:44:46.394Z,75.72
2022-12-06T01:47:20.687Z,75.72
2022-12-06T01:49:57.052Z,75.82
2022-12-06T01:52:32.237Z,75.59
2022-12-06T01:55:05.305Z,75.89
2022-12-06T01:57:37.897Z,75.60
2022-12-06T02:00:10.070Z,75.60
2022-12-06T02:02:42.300Z,75.92
2022-12-06T02:05:15.046Z,75.72
2022-12-06T02:07:47.607Z,75.57
2022-12-06T02:10:18.311Z,75.77
2022-12-06T02:12:53.781Z,75.90
2022-12-06T02:15:28.710Z,75.87
2022-12-06T02:18:07.013Z,76.16
2022-12-06T02:21:03.683Z,75.85
2022-12-06T02:24:05.968Z,76.04
2022-12-06T02:26:42.655Z,75.79
2022-12-06T02:29:32.860Z,76.02
2022-12-06T02:32:10.022Z,75.94
2022-12-06T02:34:46.815Z,76.53
2022-12-06T02:37:21.937Z,76.30
2022-12-06T02:39:57.031Z,76.00
2022-12-06T02:42:34.544Z,76.45
2022-12-06T02:45:12.804Z,76.36
2022-12-06T02:47:45.872Z,75.87
2022-12-06T02:50:21.075Z,76.35
2022-12-06T02:52:56.736Z,76.24
2022-12-06T02:55:29.479Z,76.20
2022-12-06T02:58:02.047Z,76.14
2022-12-06T03:00:37.542Z,75.92
2022-12-06T03:03:28.956Z,75.65
2022-12-06T03:06:14.662Z,76.08
2022-12-06T03:08:55.495Z,76.44
2022-12-06T03:11:30.861Z,76.04
2022-12-06T03:14:05.597Z,76.01
2022-12-06T03:16:44.176Z,75.99
2022-12-06T03:19:20.434Z,76.17
2022-12-06T03:21:58.693Z,76.26
2022-12-06T03:24:33.621Z,76.35
2022-12-06T03:27:08.971Z,76.18
2022-12-06T03:29:44.627Z,76.16
2022-12-06T03:32:19.152Z,76.08
2022-12-06T03:34:53.607Z,76.53
2022-12-06T03:37:28.203Z,76.27
2022-12-06T03:40:07.118Z,76.12
2022-12-06T03:42:40.093Z,76.32
2022-12-06T03:45:13.817Z,76.28
2022-12-06T03:47:52.029Z,76.25
2022-12-06T03:50:28.082Z,76.52
2022-12-06T03:53:00.789Z,76.23
2022-12-06T03:55:33.211Z,76.45
2022-12-06T03:58:05.478Z,75.90
2022-12-06T04:00:37.645Z,76.33
2022-12-06T04:03:09.802Z,75.92
2022-12-06T04:05:42.009Z,76.15
2022-12-06T04:08:14.251Z,75.99
2022-12-06T04:10:46.556Z,76.06
2022-12-06T04:13:19.853Z,75.93
2022-12-06T04:15:55.887Z,76.13
2022-12-06T04:18:28.476Z,75.78
2022-12-06T04:21:17.468Z,76.16
2022-12-06T04:23:51.098Z,76.38
2022-12-06T04:26:24.577Z,76.41
2022-12-06T04:29:14.769Z,76.50
2022-12-06T04:32:04.933Z,76.15
2022-12-06T04:34:54.975Z,76.49
2022-12-06T04:37:45.018Z,76.29
2022-12-06T04:40:17.459Z,76.34
2022-12-06T04:43:07.298Z,76.50
2022-12-06T04:45:39.458Z,76.23
2022-12-06T04:48:11.979Z,76.35
2022-12-06T04:50:44.119Z,76.49
2022-12-06T04:53:16.740Z,76.23
2022-12-06T04:55:50.367Z,76.61
2022-12-06T04:58:22.578Z,76.30
2022-12-06T05:00:55.900Z,76.43
2022-12-06T05:03:28.347Z,76.25
2022-12-06T05:06:00.616Z,76.54
2022-12-06T05:08:33.337Z,76.20
2022-12-06T05:11:07.936Z,76.41
2022-12-06T05:13:38.590Z,76.13
2022-12-06T05:16:13.583Z,75.97
2022-12-06T05:18:45.816Z,76.14
2022-12-06T05:21:19.791Z,76.38
2022-12-06T05:23:53.372Z,75.94
2022-12-06T05:26:27.408Z,76.26
2022-12-06T05:29:00.076Z,76.09
2022-12-06T05:31:30.526Z,76.15
2022-12-06T05:34:02.881Z,76.12
2022-12-06T05:36:35.168Z,76.40
2022-12-06T05:39:07.529Z,76.31
2022-12-06T05:41:39.843Z,76.38
2022-12-06T05:44:13.503Z,76.35
2022-12-06T05:46:45.757Z,76.40
2022-12-06T05:49:18.147Z,76.42
2022-12-06T05:51:50.342Z,76.20
2022-12-06T05:54:23.139Z,76.33
2022-12-06T05:56:53.616Z,76.20
2022-12-06T05:59:25.750Z,76.39
2022-12-06T06:01:58.192Z,76.57
2022-12-06T06:04:30.617Z,76.67
2022-12-06T06:07:03.064Z,76.56
2022-12-06T06:09:35.337Z,76.63
2022-12-06T06:12:12.512Z,76.52
2022-12-06T06:14:45.101Z,76.42
2022-12-06T06:17:17.347Z,76.48
2022-12-06T06:19:51.502Z,76.54
2022-12-06T06:22:24.696Z,76.21
2022-12-06T06:24:56.898Z,76.28
2022-12-06T06:27:29.222Z,76.42
2022-12-06T06:30:01.676Z,76.40
2022-12-06T06:32:34.323Z,76.26
2022-12-06T06:35:07.292Z,76.19
2022-12-06T06:37:39.546Z,76.57
2022-12-06T06:40:12.797Z,76.55
2022-12-06T06:42:46.136Z,76.16
2022-12-06T06:45:18.459Z,76.38
2022-12-06T06:47:50.670Z,76.42
2022-12-06T06:50:22.947Z,76.41
2022-12-06T06:52:55.216Z,76.35
2022-12-06T06:55:27.579Z,76.38
2022-12-06T06:57:59.874Z,76.57
2022-12-06T07:00:32.255Z,76.27
2022-12-06T07:03:04.938Z,76.56
2022-12-06T07:05:35.491Z,76.56
2022-12-06T07:08:08.197Z,76.53
2022-12-06T07:10:38.801Z,76.27
2022-12-06T07:13:11.077Z,76.50
2022-12-06T07:15:43.271Z,76.57
2022-12-06T07:18:17.135Z,76.35
2022-12-06T07:20:50.197Z,76.12
2022-12-06T07:23:22.645Z,76.32
2022-12-06T07:26:01.846Z,76.52
2022-12-06T07:28:34.793Z,76.56
2022-12-06T07:31:18.951Z,76.68
2022-12-06T07:33:53.423Z,76.58
2022-12-06T07:36:26.655Z,76.65
2022-12-06T07:39:00.156Z,76.62
2022-12-06T07:41:50.709Z,76.66
2022-12-06T07:44:40.499Z,76.68
2022-12-06T07:47:12.777Z,76.88
2022-12-06T07:49:45.035Z,76.40
2022-12-06T07:52:17.255Z,76.43
2022-12-06T07:54:49.482Z,76.39
2022-12-06T07:57:22.664Z,76.22
2022-12-06T07:59:55.646Z,76.50
2022-12-06T08:02:30.392Z,76.27
2022-12-06T08:05:02.695Z,76.86
2022-12-06T08:07:34.993Z,76.72
2022-12-06T08:10:09.184Z,76.75
2022-12-06T08:12:41.562Z,76.98
2022-12-06T08:15:14.340Z,77.01
2022-12-06T08:17:46.976Z,77.21
2022-12-06T08:20:22.133Z,77.08
2022-12-06T08:22:54.415Z,76.98
2022-12-06T08:25:26.641Z,77.09
2022-12-06T08:27:59.078Z,76.85
2022-12-06T08:30:31.576Z,76.89
2022-12-06T08:33:04.152Z,77.31
2022-12-06T08:35:39.170Z,77.02
2022-12-06T08:38:11.578Z,76.71
2022-12-06T08:40:43.998Z,76.92
2022-12-06T08:43:16.366Z,77.17
2022-12-06T08:45:53.749Z,76.91
2022-12-06T08:48:26.093Z,76.75
2022-12-06T08:50:58.501Z,76.62
2022-12-06T08:53:30.971Z,76.73
2022-12-06T08:56:03.266Z,76.76
2022-12-06T08:58:35.480Z,76.81
2022-12-06T09:01:14.590Z,76.55
2022-12-06T09:03:47.503Z,76.48
2022-12-06T09:06:20.341Z,76.59
2022-12-06T09:08:54.133Z,76.79
2022-12-06T09:11:26.429Z,76.63
2022-12-06T09:13:59.092Z,76.48
2022-12-06T09:16:29.703Z,76.26
2022-12-06T09:19:02.131Z,76.48
2022-12-06T09:28:46.376Z,76.10
2022-12-06T09:31:19.166Z,75.96
2022-12-06T09:33:52.020Z,75.88
2022-12-06T09:36:26.204Z,76.42
2022-12-06T09:39:19.130Z,76.58
2022-12-06T09:42:37.228Z,76.10
2022-12-06T09:45:35.945Z,76.31
2022-12-06T09:48:21.405Z,76.11
2022-12-06T09:51:00.292Z,76.16
2022-12-06T09:53:43.516Z,76.22
2022-12-06T09:56:23.148Z,76.05
2022-12-06T09:59:04.808Z,76.31
2022-12-06T10:01:44.430Z,76.44
2022-12-06T10:04:39.495Z,76.69
2022-12-06T10:07:16.280Z,76.84
2022-12-06T10:09:55.464Z,76.69
2022-12-06T10:12:39.105Z,76.58
2022-12-06T10:15:23.715Z,76.79
2022-12-06T10:18:11.242Z,76.54
2022-12-06T10:20:50.667Z,76.09
2022-12-06T10:23:37.325Z,76.26
2022-12-06T10:26:17.151Z,76.40
2022-12-06T10:28:52.565Z,76.56
2022-12-06T10:31:28.810Z,76.71
2022-12-06T10:34:04.359Z,76.80
2022-12-06T10:36:48.654Z,76.90
2022-12-06T10:39:25.572Z,76.51
2022-12-06T10:42:03.469Z,76.45
2022-12-06T10:44:41.515Z,76.73
2022-12-06T10:47:18.351Z,76.64
2022-12-06T10:49:55.818Z,76.59
2022-12-06T10:52:34.642Z,76.59
2022-12-06T10:55:18.444Z,76.74
2022-12-06T10:57:56.262Z,76.64
2022-12-06T11:00:30.392Z,76.63
2022-12-06T11:03:06.950Z,76.70
2022-12-06T11:05:42.849Z,76.59
2022-12-06T11:08:17.132Z,76.62
2022-12-06T11:10:50.027Z,76.51
2022-12-06T11:13:27.017Z,76.44
2022-12-06T11:16:02.877Z,76.26
2022-12-06T11:18:36.275Z,76.33
2022-12-06T11:21:20.498Z,76.25
2022-12-06T11:23:58.145Z,76.30
2022-12-06T11:26:39.092Z,76.05
2022-12-06T11:29:16.022Z,76.02
2022-12-06T11:31:50.724Z,76.10
2022-12-06T11:34:27.149Z,76.13
2022-12-06T11:37:00.917Z,75.96
2022-12-06T11:39:34.161Z,75.99
2022-12-06T11:42:08.415Z,75.87
2022-12-06T11:44:49.657Z,75.82
2022-12-06T11:47:24.288Z,75.98
2022-12-06T11:50:23.326Z,76.08
2022-12-06T11:53:02.378Z,75.98
2022-12-06T11:55:38.407Z,75.72
2022-12-06T11:58:14.844Z,75.83
2022-12-06T12:01:02.115Z,75.82
2022-12-06T12:03:36.848Z,75.88
2022-12-06T12:06:20.325Z,75.82
2022-12-06T12:08:59.441Z,75.91
2022-12-06T12:11:34.178Z,75.94
2022-12-06T12:14:09.225Z,75.76
2022-12-06T12:16:48.375Z,75.90
2022-12-06T12:19:33.208Z,75.67
2022-12-06T12:22:24.327Z,75.71
2022-12-06T12:27:52.788Z,76.12
2022-12-06T12:30:28.470Z,75.96
2022-12-06T12:33:18.728Z,75.87
2022-12-06T12:35:52.821Z,75.88
2022-12-06T12:38:30.080Z,75.61
2022-12-06T12:41:05.383Z,75.76
2022-12-06T12:43:37.719Z,75.80
2022-12-06T12:46:21.424Z,75.77
2022-12-06T12:48:54.242Z,75.61
2022-12-06T12:51:32.521Z,75.88
2022-12-06T12:54:06.739Z,75.65
2022-12-06T12:56:40.235Z,75.99
2022-12-06T12:59:18.380Z,75.91
2022-12-06T13:01:53.338Z,75.97
2022-12-06T13:04:37.949Z,75.83
2022-12-06T13:07:16.478Z,75.85
2022-12-06T13:09:55.151Z,75.82
2022-12-06T13:12:32.582Z,75.80
2022-12-06T13:15:10.165Z,76.08
2022-12-06T13:17:45.564Z,76.18
2022-12-06T13:20:26.777Z,76.00
2022-12-06T13:23:03.088Z,75.91
2022-12-06T13:25:37.530Z,75.66
2022-12-06T13:28:08.749Z,75.88
2022-12-06T13:30:42.350Z,76.00
2022-12-06T13:33:21.849Z,75.85
2022-12-06T13:35:58.984Z,75.96
2022-12-06T13:38:37.272Z,75.93
2022-12-06T13:41:12.286Z,75.95
2022-12-06T13:43:53.765Z,75.88
2022-12-06T13:46:29.487Z,75.88
2022-12-06T13:49:03.508Z,75.74
2022-12-06T13:51:51.521Z,75.81
2022-12-06T13:54:34.297Z,75.74
2022-12-06T13:57:13.570Z,75.71
2022-12-06T13:59:45.894Z,75.77
2022-12-06T14:02:51.174Z,75.79
2022-12-06T14:08:34.540Z,75.97
2022-12-06T14:11:20.304Z,75.85
2022-12-06T14:14:03.403Z,76.01
2022-12-06T14:16:40.532Z,75.93
2022-12-06T14:19:21.857Z,76.00
2022-12-06T14:21:59.903Z,76.21
2022-12-06T14:24:35.306Z,76.13
2022-12-06T14:27:12.807Z,76.13
2022-12-06T14:29:59.857Z,76.03
2022-12-06T14:32:38.864Z,76.25
2022-12-06T14:35:16.806Z,76.08
2022-12-06T14:37:54.008Z,76.21
2022-12-06T14:43:22.492Z,76.06
2022-12-06T14:45:56.607Z,76.03
2022-12-06T14:48:51.183Z,76.07
2022-12-06T14:51:26.647Z,76.16
2022-12-06T14:54:19.314Z,76.12
2022-12-06T14:56:51.619Z,75.96
2022-12-06T15:00:03.053Z,76.00
2022-12-06T15:02:26.893Z,75.84
2022-12-06T15:04:59.437Z,75.85
2022-12-06T15:07:40.957Z,75.85
2022-12-06T15:10:22.981Z,76.12
2022-12-06T15:12:59.035Z,76.13
2022-12-06T15:15:40.496Z,76.07
2022-12-06T15:18:25.587Z,75.98
2022-12-06T15:20:59.319Z,75.94
2022-12-06T15:23:38.473Z,75.92
2022-12-06T15:26:14.464Z,75.90
2022-12-06T15:28:47.422Z,75.83
2022-12-06T15:31:24.488Z,75.69
2022-12-06T15:33:58.882Z,75.73
2022-12-06T15:36:36.654Z,75.79
2022-12-06T15:39:13.541Z,75.45
2022-12-06T15:41:56.663Z,75.59
2022-12-06T15:44:43.057Z,75.49
2022-12-06T15:47:27.945Z,75.75
2022-12-06T15:50:24.789Z,75.38
2022-12-06T15:55:46.216Z,75.55
2022-12-06T15:58:19.804Z,75.58
2022-12-06T16:00:55.348Z,75.51
2022-12-06T16:03:34.709Z,75.46
2022-12-06T16:06:10.205Z,75.38
2022-12-06T16:08:47.753Z,75.49
2022-12-06T16:11:22.798Z,75.59
2022-12-06T16:13:55.416Z,75.69
2022-12-06T16:16:28.162Z,75.23
2022-12-06T16:19:02.098Z,75.31
2022-12-06T16:21:37.747Z,75.38
2022-12-06T16:24:16.135Z,75.36
2022-12-06T16:26:49.713Z,75.45
2022-12-06T16:29:25.318Z,75.44
2022-12-06T16:31:58.714Z,75.50
2022-12-06T16:34:31.197Z,75.43
2022-12-06T16:37:06.732Z,75.40
2022-12-06T16:39:39.216Z,75.34
2022-12-06T16:42:12.506Z,75.35
2022-12-06T16:44:52.121Z,75.43
2022-12-06T16:49:56.637Z,75.33
2022-12-06T16:52:29.552Z,75.34
2022-12-06T16:55:02.620Z,75.30
2022-12-06T16:57:35.957Z,75.23
2022-12-06T17:00:28.425Z,75.23
2022-12-06T17:03:19.847Z,75.27
2022-12-06T17:05:57.465Z,75.17
2022-12-06T17:08:32.807Z,75.36
2022-12-06T17:11:17.408Z,75.29
2022-12-06T17:13:50.808Z,75.28
2022-12-06T17:16:23.418Z,75.20
2022-12-06T17:18:55.707Z,75.19
2022-12-06T17:21:28.028Z,75.15
2022-12-06T17:24:03.760Z,75.22
2022-12-06T17:26:36.348Z,75.33
2022-12-06T17:29:10.666Z,75.11
2022-12-06T17:31:43.979Z,75.14
2022-12-06T17:34:16.851Z,75.03
2022-12-06T17:36:49.614Z,75.17
2022-12-06T17:39:22.868Z,75.05
2022-12-06T17:42:13.012Z,75.04
2022-12-06T17:44:45.330Z,75.07
2022-12-06T17:47:17.551Z,75.15
2022-12-06T17:49:49.859Z,75.12
2022-12-06T17:52:22.035Z,74.94
2022-12-06T17:54:54.255Z,74.83
2022-12-06T17:57:26.483Z,74.94
2022-12-06T17:59:59.868Z,75.06
2022-12-06T18:02:32.158Z,74.92
2022-12-06T18:05:03.484Z,74.89
2022-12-06T18:07:38.174Z,74.84
2022-12-06T18:10:12.383Z,74.85
2022-12-06T18:12:45.051Z,74.96
2022-12-06T18:15:30.820Z,75.02
2022-12-06T18:18:06.686Z,75.12
2022-12-06T18:20:44.790Z,74.76
2022-12-06T18:23:18.028Z,74.72
2022-12-06T18:25:50.493Z,74.71
2022-12-06T18:28:22.736Z,75.07
2022-12-06T18:30:56.566Z,75.08
2022-12-06T18:33:32.378Z,74.88
2022-12-06T18:36:05.328Z,75.19
2022-12-06T18:38:38.220Z,74.82
2022-12-06T18:41:23.176Z,74.80
2022-12-06T18:44:01.144Z,74.56
2022-12-06T18:46:33.948Z,74.58
2022-12-06T18:49:06.553Z,74.41
2022-12-06T18:51:43.829Z,74.84
2022-12-06T18:54:16.377Z,74.81
2022-12-06T18:56:47.192Z,74.74
2022-12-06T18:59:25.955Z,74.63
2022-12-06T19:02:00.180Z,74.47
2022-12-06T19:04:33.107Z,74.59
2022-12-06T19:07:06.801Z,74.76
2022-12-06T19:09:39.218Z,74.88
2022-12-06T19:12:11.631Z,74.83
2022-12-06T19:14:43.817Z,74.82
2022-12-06T19:17:16.183Z,74.68
2022-12-06T19:19:48.422Z,74.83
2022-12-06T19:22:20.782Z,74.74
2022-12-06T19:24:53.141Z,74.93
2022-12-06T19:27:25.395Z,74.90
2022-12-06T19:29:57.731Z,75.14
2022-12-06T19:32:30.109Z,75.21
2022-12-06T19:35:08.102Z,74.96
2022-12-06T19:37:40.863Z,75.02
2022-12-06T19:40:14.800Z,74.93
2022-12-06T19:43:04.837Z,75.10
2022-12-06T19:45:38.477Z,75.00
2022-12-06T19:48:12.022Z,75.08
2022-12-06T19:50:45.183Z,74.98
2022-12-06T19:53:19.520Z,74.69
2022-12-06T19:55:52.624Z,74.98
2022-12-06T19:58:25.031Z,74.77
2022-12-06T20:00:58.118Z,74.87
2022-12-06T20:03:30.454Z,74.62
2022-12-06T20:06:08.093Z,74.62
2022-12-06T20:08:40.731Z,74.53
2022-12-06T20:12:15.069Z,74.58
2022-12-06T20:14:48.674Z,74.88
2022-12-06T20:17:23.708Z,74.62
2022-12-06T20:20:01.444Z,74.63
2022-12-06T20:22:34.059Z,74.60
2022-12-06T20:25:07.105Z,74.70
2022-12-06T20:27:56.142Z,74.61
2022-12-06T20:30:30.880Z,74.60
2022-12-06T20:33:03.964Z,74.59
2022-12-06T20:35:39.293Z,74.73
2022-12-06T20:38:11.481Z,74.75
2022-12-06T20:40:43.815Z,74.95
2022-12-06T20:43:16.085Z,74.91
2022-12-06T20:45:48.275Z,74.98
2022-12-06T20:48:20.923Z,74.59
2022-12-06T20:50:51.523Z,75.01
2022-12-06T20:53:23.719Z,75.24
2022-12-06T20:55:56.634Z,75.05
2022-12-06T20:58:28.838Z,74.87
2022-12-06T21:01:01.392Z,75.06
2022-12-06T21:03:35.097Z,74.90
2022-12-06T21:06:09.397Z,75.07
2022-12-06T21:08:43.005Z,75.05
2022-12-06T21:11:23.908Z,75.00
2022-12-06T21:13:57.947Z,75.07
2022-12-06T21:16:31.372Z,75.21
2022-12-06T21:19:05.453Z,75.38
2022-12-06T21:21:39.847Z,75.35
2022-12-06T21:24:15.160Z,75.27
2022-12-06T21:26:47.541Z,75.32
2022-12-06T21:29:26.402Z,75.30
2022-12-06T21:32:05.204Z,75.38
2022-12-06T21:34:44.537Z,75.34
2022-12-06T21:37:18.525Z,75.10
2022-12-06T21:39:50.686Z,75.09
2022-12-06T21:42:24.091Z,75.26
2022-12-06T21:44:56.257Z,75.11
2022-12-06T21:47:28.597Z,75.13
2022-12-06T21:50:00.967Z,75.27
2022-12-06T21:52:31.849Z,74.99
2022-12-06T21:55:04.099Z,75.14
2022-12-06T21:57:37.626Z,75.30
2022-12-06T22:00:12.343Z,75.31
2022-12-06T22:02:44.588Z,75.38
2022-12-06T22:05:16.804Z,75.40
2022-12-06T22:07:49.257Z,75.38
2022-12-06T22:10:21.551Z,75.10
2022-12-06T22:12:53.767Z,74.83
2022-12-06T22:15:25.988Z,74.76
2022-12-06T22:17:58.352Z,74.81
2022-12-06T22:20:30.492Z,74.75
2022-12-06T22:23:02.748Z,74.52
2022-12-06T22:25:34.899Z,74.80
2022-12-06T22:28:07.192Z,75.19
2022-12-06T22:30:39.368Z,75.07
2022-12-06T22:33:11.619Z,74.91
2022-12-06T22:35:43.851Z,75.00
2022-12-06T22:38:16.177Z,74.75
2022-12-06T22:40:48.298Z,74.58
2022-12-06T22:43:20.531Z,74.87
2022-12-06T22:45:52.827Z,74.69
2022-12-06T22:48:25.058Z,74.64
2022-12-06T22:50:57.271Z,74.90
2022-12-06T22:53:29.426Z,74.70
2022-12-06T22:56:03.741Z,74.93
2022-12-06T22:58:36.051Z,74.74
2022-12-06T23:01:17.171Z,74.77
2022-12-06T23:03:50.850Z,75.08
2022-12-06T23:06:24.949Z,75.08
2022-12-06T23:08:57.869Z,75.50
2022-12-06T23:11:31.872Z,75.42
2022-12-06T23:14:04.469Z,75.47
2022-12-06T23:16:37.273Z,75.17
2022-12-06T23:19:11.093Z,74.84
2022-12-06T23:21:43.402Z,75.05
2022-12-06T23:24:16.230Z,74.84
2022-12-06T23:26:54.575Z,74.63
2022-12-06T23:29:29.961Z,74.77
2022-12-06T23:32:02.257Z,75.01
2022-12-06T23:34:34.813Z,74.83
2022-12-06T23:37:06.983Z,74.68
2022-12-06T23:39:39.595Z,74.90
2022-12-06T23:42:11.878Z,74.90
2022-12-06T23:44:44.074Z,74.84
2022-12-06T23:47:16.211Z,74.90
2022-12-06T23:49:48.438Z,75.10
2022-12-06T23:52:20.552Z,75.02
2022-12-06T23:54:52.727Z,74.72
2022-12-06T23:57:24.912Z,74.38
2022-12-06T23:59:57.186Z,74.64
